Time;durP1;ratioP1;P1;durP2;ratioP2;P2;SDS_P1;SDS_P2;PMS_P1;PMS_P2;Temp;Humidity;BMP_temperature;BMP_pressure;BME280_temperature;BME280_humidity;BME280_pressure;Samples;Min_cycle;Max_cycle;Signal;HPM_P1;HPM_P2
2022/10/04 00:00:46;;;;;;;;;8.00;7.60;;;;;16.52;77.62;100775.53;4627797;28;2739145;-70
2022/10/04 00:03:31;;;;;;;;;8.20;7.40;;;;;16.40;77.63;100752.56;4650287;28;2746123;-70
2022/10/04 00:06:01;;;;;;;;;7.00;7.00;;;;;16.62;77.42;100774.75;4633721;28;2739864;-70
2022/10/04 00:08:54;;;;;;;;;8.20;7.00;;;;;16.71;77.21;100793.25;4631362;28;2731588;-70
2022/10/04 00:11:26;;;;;;;;;10.20;7.00;;;;;16.78;77.08;100803.00;4681127;27;2766943;-71
2022/10/04 00:13:58;;;;;;;;;7.40;7.20;;;;;16.64;77.28;100781.78;4633381;28;2735709;-72
2022/10/04 00:16:27;;;;;;;;;9.00;8.00;;;;;16.66;77.93;100797.63;4633283;28;2746116;-72
2022/10/04 00:19:55;;;;;;;;;9.00;7.80;;;;;16.68;77.66;100794.13;4631672;28;2746138;-72
2022/10/04 00:22:31;;;;;;;;;8.00;7.00;;;;;16.70;77.49;100791.50;4612179;28;2744043;-72
2022/10/04 00:25:08;;;;;;;;;8.40;7.20;;;;;16.67;78.08;100807.31;4630878;28;2740875;-73
2022/10/04 00:27:38;;;;;;;;;10.20;7.80;;;;;16.57;78.15;100793.13;4632082;28;2768998;-72
2022/10/04 00:30:05;;;;;;;;;8.20;8.00;;;;;16.65;77.89;100809.94;4633194;28;2747275;-72
2022/10/04 00:32:39;;;;;;;;;6.00;6.00;;;;;16.64;77.64;100804.66;4644462;28;2735730;-72
2022/10/04 00:35:25;;;;;;;;;9.20;9.00;;;;;16.60;78.12;100802.84;4631724;28;2754428;-72
2022/10/04 00:38:13;;;;;;;;;10.00;8.40;;;;;16.54;78.15;100787.84;4633360;28;2759649;-71
2022/10/04 00:40:54;;;;;;;;;9.00;8.00;;;;;16.59;78.15;100793.16;4658108;27;2748201;-72
2022/10/04 00:43:47;;;;;;;;;8.40;7.20;;;;;16.30;77.76;100719.97;4633307;28;2746535;-71
2022/10/04 00:46:22;;;;;;;;;8.40;7.20;;;;;16.88;77.48;100804.88;4619031;28;2746133;-72
2022/10/04 00:49:07;;;;;;;;;7.20;7.20;;;;;16.81;77.69;100770.50;4632056;28;2742301;-72
2022/10/04 00:51:47;;;;;;;;;9.40;8.40;;;;;16.86;77.44;100768.81;4631460;28;2763847;-72
2022/10/04 00:54:17;;;;;;;;;7.50;7.50;;;;;17.04;77.27;100783.91;4632595;27;2742000;-72
2022/10/04 00:56:54;;;;;;;;;8.40;7.40;;;;;17.02;77.14;100773.31;4633434;28;2750300;-72
2022/10/04 00:59:31;;;;;;;;;8.00;8.00;;;;;17.12;77.32;100776.91;4632477;28;2746103;-71
2022/10/04 01:02:21;;;;;;;;;9.60;9.00;;;;;17.14;77.43;100780.44;4632210;28;2790864;-72
2022/10/04 01:05:13;;;;;;;;;7.80;7.60;;;;;17.03;77.79;100763.66;4634570;28;2748139;-73
2022/10/04 01:07:46;;;;;;;;;8.20;7.40;;;;;17.00;78.26;100769.78;4632410;28;2736723;-73
2022/10/04 01:10:17;;;;;;;;;8.40;8.40;;;;;17.00;78.65;100761.88;4630507;28;2752357;-72
2022/10/04 01:13:20;;;;;;;;;9.80;8.20;;;;;17.11;78.82;100775.16;4627246;28;2766339;-72
2022/10/04 01:16:10;;;;;;;;;10.80;8.00;;;;;17.06;78.82;100761.03;4595571;28;2766936;-73
2022/10/04 01:18:37;;;;;;;;;9.40;7.80;;;;;17.08;78.38;100772.50;4616471;28;2763775;-72
2022/10/04 01:21:08;;;;;;;;;8.50;7.67;;;;;17.12;78.30;100784.84;4624098;28;2738146;-72
2022/10/04 01:23:44;;;;;;;;;9.40;7.40;;;;;17.05;77.92;100769.81;4612188;28;2764841;-73
2022/10/04 01:26:33;;;;;;;;;7.00;7.00;;;;;17.15;77.71;100763.75;4616518;28;2735643;-72
2022/10/04 01:29:23;;;;;;;;;7.40;7.40;;;;;17.13;77.62;100756.69;4639650;28;2737741;-73
2022/10/04 01:31:53;;;;;;;;;11.60;9.60;;;;;17.20;77.48;100758.50;4616270;28;2784619;-71
2022/10/04 01:34:23;;;;;;;;;8.60;8.20;;;;;17.29;77.38;100769.13;4614179;28;2749243;-72
2022/10/04 01:36:54;;;;;;;;;9.80;8.20;;;;;17.17;77.37;100753.19;4615543;28;2767956;-73
2022/10/04 01:39:23;;;;;;;;;8.67;8.67;;;;;17.21;77.54;100766.44;4594747;28;2743992;-73
2022/10/04 01:42:08;;;;;;;;;8.80;8.40;;;;;17.21;77.75;100763.78;4636550;28;2746122;-71
2022/10/04 01:44:48;;;;;;;;;9.20;8.60;;;;;17.26;77.51;100767.31;4615563;28;2742282;-71
2022/10/04 01:47:22;;;;;;;;;8.60;7.80;;;;;17.22;77.63;100748.81;4616068;28;2744003;-73
2022/10/04 01:49:51;;;;;;;;;15.00;10.00;;;;;17.22;77.24;100746.19;4593999;28;2785705;-73
2022/10/04 01:52:41;;;;;;;;;8.60;7.60;;;;;17.24;77.75;100755.88;4638956;28;2746059;-73
2022/10/04 01:55:23;;;;;;;;;13.00;12.00;;;;;17.18;77.61;100745.28;4600132;28;2788133;-73
2022/10/04 01:58:00;;;;;;;;;11.60;11.00;;;;;17.12;77.61;100731.16;4616516;28;2788120;-73
2022/10/04 02:00:27;;;;;;;;;10.20;8.80;;;;;17.05;77.61;100733.78;4616061;28;2770128;-73
2022/10/04 02:03:00;;;;;;;;;12.00;10.67;;;;;17.02;77.52;100730.22;4598270;28;2781542;-71
2022/10/04 02:05:35;;;;;;;;;12.33;10.33;;;;;17.00;77.55;100726.69;4616301;28;3515919;-73
2022/10/04 02:08:08;;;;;;;;;12.50;10.83;;;;;16.95;77.60;100721.41;4637936;28;2798220;-72
2022/10/04 02:10:38;;;;;;;;;13.00;12.00;;;;;17.00;77.89;100729.34;4621287;28;2805484;-73
2022/10/04 02:13:09;;;;;;;;;14.33;12.67;;;;;16.97;78.55;100738.13;4594677;28;3541935;-71
2022/10/04 02:15:40;;;;;;;;;12.00;11.00;;;;;16.96;78.58;100741.63;4616157;28;2787881;-73
2022/10/04 02:18:14;;;;;;;;;11.40;10.60;;;;;16.91;78.86;100722.25;4636647;28;2787775;-73
2022/10/04 02:20:42;;;;;;;;;16.00;12.00;;;;;16.89;79.33;100723.97;4598367;28;2800279;-73
2022/10/04 02:23:11;;;;;;;;;12.67;11.33;;;;;16.94;79.38;100732.81;4593076;28;2787895;-73
2022/10/04 02:25:38;;;;;;;;;18.00;13.33;;;;;16.94;79.70;100727.53;4614892;28;3523163;-73
2022/10/04 02:28:09;;;;;;;;;14.00;12.00;;;;;16.87;79.39;100713.44;4616699;28;3530481;-73
2022/10/04 02:30:39;;;;;;;;;12.67;10.67;;;;;16.95;79.24;100715.22;4616682;28;2786824;-73
2022/10/04 02:33:06;;;;;;;;;14.33;12.33;;;;;16.92;79.93;100705.53;4617247;28;3526664;-71
2022/10/04 02:35:45;;;;;;;;;12.00;10.60;;;;;16.94;79.75;100708.19;4637333;28;2786705;-71
2022/10/04 02:38:34;;;;;;;;;13.00;11.00;;;;;16.97;79.88;100708.19;4593146;28;2789159;-73
2022/10/04 02:41:27;;;;;;;;;11.00;9.60;;;;;16.94;79.31;100702.91;4638270;28;2778365;-71
2022/10/04 02:44:02;;;;;;;;;9.40;8.80;;;;;16.86;78.90;100695.81;4615800;28;2765166;-71
2022/10/04 02:46:33;;;;;;;;;8.80;6.80;;;;;16.78;79.66;100697.47;4616547;28;2737800;-71
2022/10/04 02:49:09;;;;;;;;;11.40;10.60;;;;;16.62;80.12;100674.50;4634502;28;2788869;-71
2022/10/04 02:51:43;;;;;;;;;11.20;9.40;;;;;16.63;80.23;100697.38;4615985;28;2781486;-71
2022/10/04 02:54:13;;;;;;;;;7.40;7.40;;;;;16.47;80.91;100691.09;4614899;28;2738796;-72
2022/10/04 02:56:41;;;;;;;;;8.40;8.40;;;;;16.39;80.43;100677.84;4634738;28;2750285;-71
2022/10/04 02:59:15;;;;;;;;;7.00;7.00;;;;;16.38;80.09;100680.47;4615611;28;2737761;-71
2022/10/04 03:01:55;;;;;;;;;7.20;7.00;;;;;16.34;79.86;100689.25;4615279;28;2741913;-71
2022/10/04 03:04:26;;;;;;;;;6.80;6.40;;;;;16.25;79.81;100677.75;4615528;28;2732952;-73
2022/10/04 03:06:56;;;;;;;;;9.40;9.00;;;;;16.17;79.53;100667.97;4634813;28;2773205;-73
2022/10/04 03:09:25;;;;;;;;;8.40;7.00;;;;;16.16;79.35;100677.66;4616152;28;2735647;-73
2022/10/04 03:11:53;;;;;;;;;8.60;7.80;;;;;16.05;79.46;100680.16;4638196;28;2746107;-73
2022/10/04 03:14:24;;;;;;;;;6.80;6.40;;;;;15.98;79.82;100669.59;4609097;28;2734689;-73
2022/10/04 03:16:54;;;;;;;;;7.40;7.20;;;;;16.04;79.66;100678.41;4636779;28;2735662;-73
2022/10/04 03:19:25;;;;;;;;;7.00;6.00;;;;;16.04;79.31;100677.53;4633189;28;2737801;-73
2022/10/04 03:21:56;;;;;;;;;6.00;6.00;;;;;15.86;79.58;100671.22;4620648;28;2721135;-73
2022/10/04 03:24:29;;;;;;;;;7.00;6.40;;;;;15.76;79.86;100665.84;4616564;28;2730501;-73
2022/10/04 03:27:01;;;;;;;;;6.40;6.00;;;;;15.76;79.99;100679.03;4637921;28;2732566;-73
2022/10/04 03:29:30;;;;;;;;;6.00;6.00;;;;;15.76;79.80;100681.66;4619769;28;2730498;-73
2022/10/04 03:32:01;;;;;;;;;7.00;6.00;;;;;15.66;79.46;100689.41;4616529;28;2732546;-73
2022/10/04 03:34:40;;;;;;;;;6.00;6.00;;;;;15.50;79.71;100671.66;4634925;28;2727372;-73
2022/10/04 03:37:14;;;;;;;;;8.20;7.60;;;;;15.48;80.09;100676.03;4637854;28;2750249;-73
2022/10/04 03:39:51;;;;;;;;;9.60;8.20;;;;;15.45;80.68;100670.72;4615160;28;2767945;-73
2022/10/04 03:42:26;;;;;;;;;6.60;6.60;;;;;15.46;81.10;100683.91;4614264;28;2739821;-73
2022/10/04 03:44:59;;;;;;;;;9.20;8.00;;;;;15.32;81.71;100672.31;4613007;28;2763779;-73
2022/10/04 03:47:31;;;;;;;;;6.80;6.20;;;;;15.30;82.00;100677.56;4613578;28;2737750;-73
2022/10/04 03:50:06;;;;;;;;;10.40;9.00;;;;;15.40;82.48;100691.72;4637894;28;2774203;-73
2022/10/04 03:52:36;;;;;;;;;8.40;8.00;;;;;15.39;82.94;100682.03;4614118;28;2747168;-73
2022/10/04 03:55:07;;;;;;;;;9.60;7.00;;;;;15.36;82.21;100683.75;4612148;28;2767328;-73
2022/10/04 03:57:36;;;;;;;;;6.60;6.40;;;;;15.29;81.39;100670.50;4614270;28;2735686;-73
2022/10/04 04:00:05;;;;;;;;;6.00;6.00;;;;;15.23;80.75;100675.72;4635384;28;2726371;-73
2022/10/04 04:03:02;;;;;;;;;7.80;7.00;;;;;15.22;80.52;100686.19;4637568;28;2742278;-73
2022/10/04 04:06:03;;;;;;;;;6.20;6.20;;;;;15.15;80.17;100679.13;4613003;28;2731484;-73
2022/10/04 04:08:33;;;;;;;;;5.00;5.00;;;;;15.09;80.26;100683.41;4607223;28;2731940;-71
2022/10/04 04:11:04;;;;;;;;;6.00;5.00;;;;;14.94;80.37;100666.53;4615968;28;2732585;-71
2022/10/04 04:13:51;;;;;;;;;6.20;5.00;;;;;14.80;80.77;100663.69;4632973;28;2741172;-71
2022/10/04 04:16:24;;;;;;;;;6.60;6.00;;;;;14.78;81.18;100675.94;4637159;28;2736711;-73
2022/10/04 04:18:52;;;;;;;;;9.00;7.00;;;;;14.75;80.92;100686.44;4618678;28;2747502;-71
2022/10/04 04:21:25;;;;;;;;;6.80;6.00;;;;;14.66;81.61;100676.66;4613106;28;2734616;-73
2022/10/04 04:24:00;;;;;;;;;8.80;8.00;;;;;14.65;83.10;100670.50;4637006;28;2746079;-71
2022/10/04 04:26:38;;;;;;;;;8.80;8.20;;;;;14.73;83.84;100681.16;4612996;28;2752324;-72
2022/10/04 04:29:10;;;;;;;;;10.00;9.00;;;;;14.77;83.68;100687.34;4612862;28;2769041;-71
2022/10/04 04:31:43;;;;;;;;;10.00;9.60;;;;;14.81;84.09;100689.16;4614149;28;2794006;-73
2022/10/04 04:34:28;;;;;;;;;9.50;7.50;;;;;14.78;84.00;100687.38;4594973;28;2740935;-72
2022/10/04 04:36:58;;;;;;;;;8.40;7.80;;;;;14.83;83.92;100695.31;4615815;28;2753366;-73
2022/10/04 04:39:33;;;;;;;;;10.00;8.20;;;;;14.84;84.40;100699.72;4611282;28;2756535;-73
2022/10/04 04:42:05;;;;;;;;;8.00;8.00;;;;;14.71;84.47;100675.84;4614163;28;2746094;-73
2022/10/04 04:44:33;;;;;;;;;7.60;6.80;;;;;14.69;84.53;100692.47;4614538;28;2731505;-73
2022/10/04 04:47:04;;;;;;;;;21.33;21.33;;;;;14.59;84.04;100677.44;4617107;28;3588090;-73
2022/10/04 04:49:36;;;;;;;;;6.60;6.60;;;;;14.64;83.21;100695.06;4613878;28;2744435;-72
2022/10/04 04:52:02;;;;;;;;;6.50;6.50;;;;;14.62;82.67;100693.22;4599313;28;2736752;-73
2022/10/04 04:54:30;;;;;;;;;7.60;7.40;;;;;14.57;82.26;100695.81;4620268;28;2739968;-73
2022/10/04 04:56:56;;;;;;;;;6.00;5.00;;;;;14.11;82.26;100618.81;4622713;28;2734681;-73
2022/10/04 04:59:26;;;;;;;;;8.00;7.00;;;;;14.37;82.24;100676.16;4639476;28;2737801;-73
2022/10/04 05:01:54;;;;;;;;;5.60;5.60;;;;;14.06;82.16;100631.84;4640524;28;2728436;-72
2022/10/04 05:04:22;;;;;;;;;6.00;5.00;;;;;14.42;82.18;100698.13;4628924;28;2748205;-73
2022/10/04 05:07:03;;;;;;;;;6.00;6.00;;;;;14.37;82.31;100698.06;4621984;28;2728430;-73
2022/10/04 05:09:40;;;;;;;;;7.00;6.00;;;;;14.42;81.96;100706.91;4598177;28;2737762;-72
2022/10/04 05:12:17;;;;;;;;;6.20;5.60;;;;;14.37;81.99;100695.44;4618378;28;2730503;-73
2022/10/04 05:14:48;;;;;;;;;8.00;7.00;;;;;14.32;81.72;100705.88;4619773;28;2737780;-73
2022/10/04 05:17:34;;;;;;;;;5.00;4.00;;;;;14.28;82.08;100706.69;4598835;28;2752409;-73
2022/10/04 05:20:01;;;;;;;;;5.50;5.50;;;;;14.15;81.81;100672.28;4599594;28;2739213;-73
2022/10/04 05:22:29;;;;;;;;;5.00;5.00;;;;;14.27;82.03;100704.03;4597954;28;2735749;-73
2022/10/04 05:25:04;;;;;;;;;8.40;8.40;;;;;14.16;82.66;100681.94;4616730;28;2747147;-72
2022/10/04 05:27:39;;;;;;;;;9.60;9.60;;;;;14.17;82.45;100681.97;4616328;28;2784662;-72
2022/10/04 05:30:13;;;;;;;;;15.00;13.00;;;;;14.28;82.36;100706.69;4599169;28;2808679;-72
2022/10/04 05:33:13;;;;;;;;;18.50;17.50;;;;;14.24;83.38;100706.59;4594106;28;2834003;-73
2022/10/04 05:36:06;;;;;;;;;11.00;11.00;;;;;14.12;82.19;100687.16;4595147;28;2787925;-73
2022/10/04 05:38:52;;;;;;;;;16.00;14.00;;;;;14.22;82.04;100698.66;4621481;28;2810684;-73
2022/10/04 05:41:42;;;;;;;;;11.00;10.00;;;;;14.21;82.18;100690.78;4614877;28;2783590;-72
2022/10/04 05:44:35;;;;;;;;;8.60;8.00;;;;;14.21;82.14;100690.78;4615784;28;2757921;-71
2022/10/04 05:47:07;;;;;;;;;7.00;7.00;;;;;14.16;81.47;100681.94;4615765;28;2744028;-73
2022/10/04 05:49:43;;;;;;;;;11.00;9.20;;;;;14.10;81.96;100680.06;4611989;28;2776318;-73
2022/10/04 05:52:23;;;;;;;;;16.67;15.67;;;;;14.17;82.00;100699.47;4593769;28;3555473;-70
2022/10/04 05:55:27;;;;;;;;;8.50;8.50;;;;;14.13;81.65;100682.78;4625089;28;2747192;-71
2022/10/04 05:58:03;;;;;;;;;8.00;7.20;;;;;14.16;81.72;100688.06;4616281;28;2746101;-72
2022/10/04 06:00:55;;;;;;;;;6.00;6.00;;;;;14.12;81.47;100692.41;4615508;28;2730447;-71
2022/10/04 06:03:28;;;;;;;;;7.60;7.00;;;;;14.09;81.74;100697.59;4639549;28;2740190;-72
2022/10/04 06:06:04;;;;;;;;;6.80;6.00;;;;;14.07;81.99;100696.69;4639238;28;2730502;-72
2022/10/04 06:08:44;;;;;;;;;9.00;8.00;;;;;14.02;82.13;100695.69;4620712;28;2730509;-73
2022/10/04 06:11:33;;;;;;;;;7.40;7.40;;;;;14.01;82.44;100699.19;4614694;28;2748189;-72
2022/10/04 06:14:41;;;;;;;;;8.20;7.80;;;;;14.01;82.98;100688.69;4616207;28;2749565;-73
2022/10/04 06:17:27;;;;;;;;;6.00;6.00;;;;;14.03;82.38;100707.09;4615754;28;2732553;-71
2022/10/04 06:20:19;;;;;;;;;6.00;5.60;;;;;13.95;82.28;100699.09;4638963;28;2734640;-73
2022/10/04 06:22:47;;;;;;;;;9.00;8.50;;;;;13.96;82.57;100686.81;4618856;28;2742998;-72
2022/10/04 06:25:22;;;;;;;;;10.00;10.00;;;;;14.01;82.53;100693.06;4600610;28;2774282;-71
2022/10/04 06:28:23;;;;;;;;;10.67;10.00;;;;;14.01;82.81;100693.94;4614532;28;2795429;-72
2022/10/04 06:31:23;;;;;;;;;11.00;11.00;;;;;14.13;82.52;100709.91;4621706;28;2786749;-73
2022/10/04 06:34:21;;;;;;;;;6.60;6.00;;;;;14.09;82.41;100707.22;4616283;28;2745049;-72
2022/10/04 06:37:26;;;;;;;;;7.00;7.00;;;;;14.23;82.72;100725.84;4614555;28;2734620;-73
2022/10/04 06:40:31;;;;;;;;;9.00;8.60;;;;;14.25;82.74;100729.41;4638322;28;2748221;-73
2022/10/04 06:43:17;;;;;;;;;6.00;6.00;;;;;14.21;81.65;100717.06;4615609;28;2737793;-72
2022/10/04 06:45:48;;;;;;;;;7.60;7.00;;;;;14.27;81.88;100728.56;4638423;28;2746103;-72
2022/10/04 06:48:37;;;;;;;;;5.00;5.00;;;;;14.33;81.67;100730.41;4594550;28;2746115;-70
2022/10/04 06:51:25;;;;;;;;;6.80;6.00;;;;;14.29;82.04;100724.22;4649972;28;2734665;-71
2022/10/04 06:54:17;;;;;;;;;6.20;6.00;;;;;14.38;82.17;100725.22;4653884;28;2728399;-71
2022/10/04 06:57:07;;;;;;;;;6.00;6.00;;;;;14.47;83.16;100742.03;4655734;28;2734641;-70
2022/10/04 06:59:50;;;;;;;;;7.40;7.40;;;;;14.50;82.77;100749.09;4653268;28;2754400;-74
2022/10/04 07:02:31;;;;;;;;;8.00;7.80;;;;;14.44;82.91;100741.09;4631116;28;2746135;-70
2022/10/04 07:05:12;;;;;;;;;5.40;5.40;;;;;14.54;83.30;100743.03;4655277;27;2734693;-72
2022/10/04 07:07:46;;;;;;;;;9.40;9.20;;;;;14.61;82.74;100746.69;4654306;28;2778432;-73
2022/10/04 07:10:22;;;;;;;;;10.40;9.20;;;;;14.77;81.41;100763.59;4631980;28;2778385;-71
2022/10/04 07:13:19;;;;;;;;;10.00;9.80;;;;;14.84;80.92;100758.47;4628707;28;2777739;-71
2022/10/04 07:15:49;;;;;;;;;11.80;9.00;;;;;15.00;81.04;100764.88;4631411;28;2756546;-73
2022/10/04 07:18:26;;;;;;;;;9.00;8.00;;;;;15.16;80.54;100770.34;4630058;28;2751319;-73
2022/10/04 07:21:07;;;;;;;;;8.00;7.00;;;;;15.30;80.58;100746.00;4633562;28;2746074;-74
2022/10/04 07:23:45;;;;;;;;;8.80;8.20;;;;;17.29;77.82;100777.91;4633096;28;2758571;-73
2022/10/04 07:26:29;;;;;;;;;7.80;7.20;;;;;21.00;67.50;100765.97;4633061;28;2740907;-73
2022/10/04 07:29:21;;;;;;;;;6.00;6.00;;;;;23.84;58.16;100752.84;4633322;28;2737773;-73
2022/10/04 07:32:01;;;;;;;;;7.00;7.00;;;;;26.15;50.49;100760.22;4616985;28;2734697;-71
2022/10/04 07:34:51;;;;;;;;;5.00;5.00;;;;;27.51;46.84;100764.59;4664486;27;2734717;-72
2022/10/04 07:37:20;;;;;;;;;13.00;11.50;;;;;28.75;43.73;100750.81;4590623;28;2798227;-71
2022/10/04 07:40:00;;;;;;;;;9.00;7.80;;;;;29.77;40.99;100757.13;4632238;28;2728777;-72
2022/10/04 07:42:43;;;;;;;;;6.20;6.00;;;;;30.70;40.23;100763.38;4630599;28;2726398;-71
2022/10/04 07:45:31;;;;;;;;;5.20;5.20;;;;;31.49;39.14;100748.53;4632527;28;2725266;-71
2022/10/04 07:48:11;;;;;;;;;4.00;4.00;;;;;32.24;36.83;100744.34;4655608;28;2741961;-71
2022/10/04 07:50:51;;;;;;;;;6.00;6.00;;;;;33.14;37.24;100766.19;4632167;28;2733647;-71
2022/10/04 07:53:46;;;;;;;;;4.40;4.00;;;;;33.68;33.59;100747.47;4655578;28;2744023;-72
2022/10/04 07:56:26;;;;;;;;;5.00;5.00;;;;;34.27;33.45;100769.88;4616663;28;2715220;-70
2022/10/04 07:59:19;;;;;;;;;3.20;3.20;;;;;34.85;31.80;100783.22;4655182;28;2736747;-71
2022/10/04 08:02:32;;;;;;;;;4.40;4.40;;;;;35.32;30.55;100786.41;4632422;28;2744431;-69
2022/10/04 08:05:21;;;;;;;;;5.60;5.20;;;;;35.72;30.83;100786.31;4631363;28;2734719;-71
2022/10/04 08:08:32;;;;;;;;;5.40;5.40;;;;;36.09;29.58;100770.88;4630588;28;2736775;-69
2022/10/04 08:11:18;;;;;;;;;4.20;4.00;;;;;36.44;29.57;100770.13;4631578;28;2737788;-71
2022/10/04 08:14:03;;;;;;;;;5.00;5.00;;;;;36.79;28.55;100782.94;4630461;28;2729797;-70
2022/10/04 08:16:47;;;;;;;;;7.00;5.40;;;;;37.13;27.88;100789.41;4630138;28;2736759;-71
2022/10/04 08:20:16;;;;;;;;;3.60;3.00;;;;;37.45;27.90;100796.03;4631422;28;2741951;-71
2022/10/04 08:22:53;;;;;;;;;4.00;3.40;;;;;37.63;27.69;100805.47;4574917;28;2746260;-70
2022/10/04 08:25:28;;;;;;;;;3.40;3.40;;;;;37.93;27.81;100787.63;4634393;28;2731516;-72
2022/10/04 08:31:24;;;;;;;;;3.80;3.80;;;;;38.07;26.78;100792.84;4631160;28;2739873;-72
2022/10/04 08:34:10;;;;;;;;;4.40;4.00;;;;;38.07;27.10;100805.63;4605034;28;2742299;-72
2022/10/04 08:36:52;;;;;;;;;5.40;5.00;;;;;38.14;26.26;100795.94;4624152;28;2732530;-72
2022/10/04 08:39:29;;;;;;;;;5.40;4.00;;;;;38.27;26.13;100798.53;4658468;28;2737793;-72
2022/10/04 08:42:04;;;;;;;;;4.67;4.00;;;;;38.13;27.45;100796.94;4610641;28;2739868;-84
2022/10/04 08:45:00;;;;;;;;;3.00;3.00;;;;;38.52;27.51;100806.44;4649228;28;2733594;-84
2022/10/04 08:48:11;;;;;;;;;4.20;3.80;;;;;38.79;26.67;100807.81;4646280;28;2738119;-80
2022/10/04 08:51:07;;;;;;;;;3.80;3.40;;;;;38.90;27.50;100804.13;4571953;28;2741983;-83
2022/10/04 08:53:47;;;;;;;;;3.00;3.00;;;;;38.69;25.98;100796.78;4586800;28;2745083;-72
2022/10/04 08:56:37;;;;;;;;;4.20;3.80;;;;;38.50;26.65;100800.19;4597969;28;2741913;-72
2022/10/04 08:59:36;;;;;;;;;3.00;3.00;;;;;38.34;27.30;100802.44;4598837;28;2730848;-72
2022/10/04 09:02:23;;;;;;;;;6.67;5.67;;;;;37.83;27.16;100805.75;4596620;28;2739173;-72
2022/10/04 09:05:24;;;;;;;;;6.40;6.20;;;;;37.05;28.53;100805.44;4639756;28;2740875;-72
2022/10/04 09:08:10;;;;;;;;;3.60;3.60;;;;;36.73;29.17;100797.91;4617086;28;2731834;-73
2022/10/04 09:11:15;;;;;;;;;4.80;3.80;;;;;35.90;30.93;100754.19;4622840;28;2737093;-84
2022/10/04 09:13:48;;;;;;;;;5.60;5.00;;;;;35.80;30.25;100817.38;4617180;28;2747462;-85
2022/10/04 09:16:49;;;;;;;;;5.00;5.00;;;;;35.42;32.69;100815.50;4618038;28;2752324;-84
2022/10/04 09:19:51;;;;;;;;;4.00;4.00;;;;;35.28;30.78;100802.03;4599907;28;2735663;-73
2022/10/04 09:22:56;;;;;;;;;15.33;13.00;;;;;34.74;31.94;100796.66;4625149;28;2799237;-79
2022/10/04 09:25:51;;;;;;;;;8.20;8.20;;;;;34.32;32.54;100812.06;4640350;28;2750776;-81
2022/10/04 09:29:04;;;;;;;;;5.20;5.20;;;;;34.07;34.51;100798.25;4599103;28;2732962;-72
2022/10/04 09:31:44;;;;;;;;;7.00;6.33;;;;;34.22;33.46;100795.53;4590640;28;2741948;-84
2022/10/04 09:34:21;;;;;;;;;4.80;4.80;;;;;34.11;33.87;100808.91;4658598;28;2735092;-80
2022/10/04 09:37:14;;;;;;;;;3.80;3.80;;;;;34.05;33.98;100808.31;4634584;28;2733604;-73
2022/10/04 09:40:00;;;;;;;;;4.00;4.00;;;;;34.19;34.40;100802.03;4632103;28;2732989;-73
2022/10/04 09:42:37;;;;;;;;;4.60;4.60;;;;;34.11;33.56;100803.50;4657100;28;2748205;-77
2022/10/04 09:45:53;;;;;;;;;5.80;5.00;;;;;33.79;33.54;100803.72;4633695;28;2726280;-72
2022/10/04 09:49:00;;;;;;;;;6.20;4.80;;;;;33.69;34.76;100811.53;4614200;28;2744050;-73
2022/10/04 09:51:55;;;;;;;;;4.00;4.00;;;;;33.88;34.30;100811.22;4583688;28;2733596;-83
2022/10/04 09:54:28;;;;;;;;;4.40;4.40;;;;;33.76;34.10;100820.16;4634623;28;2748297;-73
2022/10/04 09:57:14;;;;;;;;;5.00;5.00;;;;;33.78;34.05;100819.06;4634590;28;2726292;-71
2022/10/04 09:59:55;;;;;;;;;4.00;4.00;;;;;33.65;34.28;100810.00;4634466;28;2735650;-74
2022/10/04 10:02:40;;;;;;;;;4.00;4.00;;;;;33.46;35.48;100812.94;4633517;28;2731535;-72
2022/10/04 10:05:45;;;;;;;;;4.40;4.40;;;;;33.33;35.44;100811.97;4656342;28;2732568;-72
2022/10/04 10:08:28;;;;;;;;;6.40;6.00;;;;;33.01;35.64;100799.38;4657709;28;2738819;-71
2022/10/04 10:14:06;;;;;;;;;5.80;5.00;;;;;32.49;36.27;100805.09;4634519;28;2738799;-71
2022/10/04 10:16:40;;;;;;;;;5.00;5.00;;;;;32.27;37.34;100817.19;4634233;28;2733575;-72
2022/10/04 10:20:00;;;;;;;;;5.00;5.00;;;;;31.94;37.51;100800.13;4633892;28;2736712;-73
2022/10/04 10:22:56;;;;;;;;;4.00;4.00;;;;;32.12;37.37;100809.91;4633951;28;2723175;-71
2022/10/04 10:25:47;;;;;;;;;5.40;5.40;;;;;32.01;37.21;100807.84;4634213;28;2742330;-73
2022/10/04 10:28:38;;;;;;;;;4.00;4.00;;;;;31.51;37.41;100809.59;4631943;28;2745058;-72
2022/10/04 10:31:29;;;;;;;;;5.60;5.00;;;;;31.37;37.98;100809.41;4629583;28;2741999;-71
2022/10/04 10:34:18;;;;;;;;;5.00;4.00;;;;;31.50;38.50;100806.97;4654304;28;2736747;-71
2022/10/04 10:37:07;;;;;;;;;4.00;4.00;;;;;31.36;39.08;100813.06;4630567;28;2742270;-72
2022/10/04 10:39:55;;;;;;;;;5.00;5.00;;;;;31.37;39.58;100817.50;4633107;28;2725261;-72
2022/10/04 10:42:42;;;;;;;;;4.80;4.00;;;;;30.92;40.54;100806.34;4655818;28;2739161;-73
2022/10/04 10:45:32;;;;;;;;;4.40;4.40;;;;;30.94;40.94;100808.97;4632040;28;2740913;-73
2022/10/04 10:48:08;;;;;;;;;5.40;5.00;;;;;30.72;40.51;100793.81;4656044;28;2734629;-73
2022/10/04 10:50:57;;;;;;;;;5.00;4.80;;;;;30.83;41.77;100820.25;4633294;28;2740910;-72
2022/10/04 10:53:24;;;;;;;;;4.40;4.20;;;;;30.87;41.31;100815.56;4632481;28;2748178;-72
2022/10/04 10:55:55;;;;;;;;;4.83;4.83;;;;;30.71;42.10;100815.47;4646703;28;2738804;-71
2022/10/04 10:59:07;;;;;;;;;6.00;5.60;;;;;30.31;42.41;100810.22;4630433;28;2736999;-71
2022/10/04 11:01:59;;;;;;;;;6.00;5.00;;;;;30.30;42.57;100810.25;4631774;28;2734669;-72
2022/10/04 11:04:29;;;;;;;;;6.00;5.00;;;;;30.24;43.41;100806.03;4638656;28;2737754;-71
2022/10/04 11:07:03;;;;;;;;;6.00;6.00;;;;;30.23;43.14;100806.97;4630025;28;2729463;-73
2022/10/04 11:09:47;;;;;;;;;5.00;5.00;;;;;30.13;43.50;100809.22;4633342;28;2722491;-72
2022/10/04 11:13:04;;;;;;;;;5.00;5.00;;;;;29.76;44.30;100802.00;4637679;28;2728761;-72
2022/10/04 11:15:46;;;;;;;;;5.00;5.00;;;;;29.80;44.31;100802.72;4652653;28;2730497;-72
2022/10/04 11:18:32;;;;;;;;;5.40;5.20;;;;;29.88;44.93;100805.94;4631679;28;2738100;-71
2022/10/04 11:21:33;;;;;;;;;9.00;7.20;;;;;29.79;44.10;100804.56;4632920;28;2739825;-72
2022/10/04 11:24:30;;;;;;;;;6.20;6.00;;;;;29.57;44.38;100799.25;4631563;28;2727317;-71
2022/10/04 11:27:03;;;;;;;;;4.60;4.00;;;;;29.49;45.20;100796.03;4633011;28;2733592;-72
2022/10/04 11:29:29;;;;;;;;;9.00;9.00;;;;;29.49;45.06;100791.53;4639899;28;2754474;-72
2022/10/04 11:32:00;;;;;;;;;7.00;7.00;;;;;29.41;46.11;100796.38;4656593;28;2737762;-71
2022/10/04 11:34:49;;;;;;;;;7.20;6.40;;;;;29.41;45.75;100799.06;4629358;28;2746158;-73
2022/10/04 11:37:32;;;;;;;;;8.40;7.60;;;;;29.30;46.34;100791.44;4632954;28;2737734;-72
2022/10/04 11:40:22;;;;;;;;;5.40;5.00;;;;;29.16;47.05;100793.88;4632615;28;2737754;-72
2022/10/04 11:43:34;;;;;;;;;7.67;6.67;;;;;28.77;46.49;100775.81;4611981;28;2752357;-73
2022/10/04 11:46:34;;;;;;;;;7.00;7.00;;;;;28.58;47.44;100791.81;4637406;28;2736735;-72
2022/10/04 11:49:26;;;;;;;;;7.60;7.20;;;;;28.32;47.93;100780.28;4656410;28;2734613;-72
2022/10/04 11:52:16;;;;;;;;;8.00;7.00;;;;;28.26;48.06;100788.59;4613680;28;2737803;-72
2022/10/04 11:55:07;;;;;;;;;6.40;6.40;;;;;28.13;48.16;100776.56;4656878;28;2741901;-72
2022/10/04 11:58:02;;;;;;;;;5.80;4.80;;;;;27.88;49.08;100777.53;4632898;28;2730447;-71
2022/10/04 12:01:10;;;;;;;;;8.40;6.60;;;;;27.88;48.60;100772.16;4636239;28;2744039;-72
2022/10/04 12:03:36;;;;;;;;;7.00;6.00;;;;;28.00;48.49;100769.94;4585920;28;2730486;-70
2022/10/04 12:06:15;;;;;;;;;5.00;5.00;;;;;27.94;47.59;100755.81;4657463;28;2739825;-72
2022/10/04 12:09:13;;;;;;;;;5.00;4.00;;;;;27.99;47.05;100760.13;4617303;28;2744073;-72
2022/10/04 12:15:29;;;;;;;;;3.40;3.40;;;;;28.00;45.63;100762.75;4636388;28;2739877;-72
2022/10/04 12:18:08;;;;;;;;;5.00;4.40;;;;;27.96;46.36;100743.22;4659509;28;2735654;-73
2022/10/04 12:21:08;;;;;;;;;5.80;5.00;;;;;28.11;46.33;100749.78;4660128;28;2751279;-72
2022/10/04 12:24:03;;;;;;;;;5.00;5.00;;;;;28.15;46.51;100753.22;4636280;28;2741908;-73